sensor_id;sensor_type;location;lat;lon;timestamp;P1;durP1;ratioP1;P2;durP2;ratioP2
3415;SDS011;1721;51.238;9.562;2023-06-10T00:01:32;14.20;;;7.10;;
3415;SDS011;1721;51.238;9.562;2023-06-10T00:04:01;19.98;;;7.43;;
3415;SDS011;1721;51.238;9.562;2023-06-10T00:06:27;14.52;;;6.70;;
3415;SDS011;1721;51.238;9.562;2023-06-10T00:08:53;16.70;;;7.93;;
3415;SDS011;1721;51.238;9.562;2023-06-10T00:11:21;14.73;;;8.75;;
3415;SDS011;1721;51.238;9.562;2023-06-10T00:13:47;17.27;;;8.77;;
3415;SDS011;1721;51.238;9.562;2023-06-10T00:16:12;17.17;;;8.30;;
3415;SDS011;1721;51.238;9.562;2023-06-10T00:18:38;17.07;;;8.00;;
3415;SDS011;1721;51.238;9.562;2023-06-10T00:21:04;14.00;;;7.80;;
3415;SDS011;1721;51.238;9.562;2023-06-10T00:23:30;13.63;;;7.10;;
3415;SDS011;1721;51.238;9.562;2023-06-10T00:25:58;20.48;;;8.05;;
3415;SDS011;1721;51.238;9.562;2023-06-10T00:28:24;13.57;;;7.15;;
3415;SDS011;1721;51.238;9.562;2023-06-10T00:30:52;12.57;;;6.93;;
3415;SDS011;1721;51.238;9.562;2023-06-10T00:33:17;11.10;;;6.72;;
3415;SDS011;1721;51.238;9.562;2023-06-10T00:35:43;13.33;;;6.77;;
3415;SDS011;1721;51.238;9.562;2023-06-10T00:38:08;12.50;;;6.10;;
3415;SDS011;1721;51.238;9.562;2023-06-10T00:40:40;11.80;;;5.93;;
3415;SDS011;1721;51.238;9.562;2023-06-10T00:43:07;12.10;;;6.30;;
3415;SDS011;1721;51.238;9.562;2023-06-10T00:45:34;14.75;;;7.15;;
3415;SDS011;1721;51.238;9.562;2023-06-10T00:48:00;13.77;;;7.07;;
3415;SDS011;1721;51.238;9.562;2023-06-10T00:50:26;16.15;;;7.55;;
3415;SDS011;1721;51.238;9.562;2023-06-10T00:52:55;12.93;;;5.90;;
3415;SDS011;1721;51.238;9.562;2023-06-10T00:55:21;22.23;;;7.20;;
3415;SDS011;1721;51.238;9.562;2023-06-10T00:57:48;12.45;;;6.10;;
3415;SDS011;1721;51.238;9.562;2023-06-10T01:00:16;12.00;;;5.95;;
3415;SDS011;1721;51.238;9.562;2023-06-10T01:02:42;11.73;;;5.35;;
3415;SDS011;1721;51.238;9.562;2023-06-10T01:05:07;13.23;;;6.60;;
3415;SDS011;1721;51.238;9.562;2023-06-10T01:13:16;13.23;;;4.95;;
3415;SDS011;1721;51.238;9.562;2023-06-10T01:15:42;11.10;;;5.65;;
3415;SDS011;1721;51.238;9.562;2023-06-10T01:18:09;11.00;;;5.37;;
3415;SDS011;1721;51.238;9.562;2023-06-10T01:20:40;12.60;;;6.00;;
3415;SDS011;1721;51.238;9.562;2023-06-10T01:23:08;11.05;;;5.45;;
3415;SDS011;1721;51.238;9.562;2023-06-10T01:25:38;10.68;;;5.63;;
3415;SDS011;1721;51.238;9.562;2023-06-10T01:28:09;16.48;;;6.53;;
3415;SDS011;1721;51.238;9.562;2023-06-10T01:33:41;10.88;;;5.30;;
3415;SDS011;1721;51.238;9.562;2023-06-10T01:36:12;12.93;;;5.78;;
3415;SDS011;1721;51.238;9.562;2023-06-10T01:38:41;12.20;;;6.13;;
3415;SDS011;1721;51.238;9.562;2023-06-10T01:41:10;12.02;;;5.85;;
3415;SDS011;1721;51.238;9.562;2023-06-10T01:43:42;13.50;;;5.72;;
3415;SDS011;1721;51.238;9.562;2023-06-10T01:46:09;11.98;;;5.95;;
3415;SDS011;1721;51.238;9.562;2023-06-10T01:48:37;11.10;;;5.72;;
3415;SDS011;1721;51.238;9.562;2023-06-10T01:51:04;13.18;;;5.78;;
3415;SDS011;1721;51.238;9.562;2023-06-10T01:53:30;13.98;;;5.60;;
3415;SDS011;1721;51.238;9.562;2023-06-10T01:55:56;11.37;;;5.90;;
3415;SDS011;1721;51.238;9.562;2023-06-10T01:58:21;11.87;;;6.00;;
3415;SDS011;1721;51.238;9.562;2023-06-10T02:00:47;12.30;;;5.97;;
3415;SDS011;1721;51.238;9.562;2023-06-10T02:03:14;32.87;;;14.73;;
3415;SDS011;1721;51.238;9.562;2023-06-10T02:05:39;13.98;;;5.47;;
3415;SDS011;1721;51.238;9.562;2023-06-10T02:08:05;16.63;;;5.10;;
3415;SDS011;1721;51.238;9.562;2023-06-10T02:10:31;16.40;;;5.70;;
3415;SDS011;1721;51.238;9.562;2023-06-10T02:12:56;10.40;;;5.43;;
3415;SDS011;1721;51.238;9.562;2023-06-10T02:15:22;15.30;;;5.90;;
3415;SDS011;1721;51.238;9.562;2023-06-10T02:17:49;12.50;;;6.60;;
3415;SDS011;1721;51.238;9.562;2023-06-10T02:20:15;15.00;;;5.68;;
3415;SDS011;1721;51.238;9.562;2023-06-10T02:22:41;12.87;;;6.07;;
3415;SDS011;1721;51.238;9.562;2023-06-10T02:25:06;15.50;;;6.20;;
3415;SDS011;1721;51.238;9.562;2023-06-10T02:27:33;12.10;;;5.80;;
3415;SDS011;1721;51.238;9.562;2023-06-10T02:29:59;13.43;;;4.93;;
3415;SDS011;1721;51.238;9.562;2023-06-10T02:32:25;9.77;;;5.47;;
3415;SDS011;1721;51.238;9.562;2023-06-10T02:34:50;10.77;;;5.97;;
3415;SDS011;1721;51.238;9.562;2023-06-10T02:37:18;12.35;;;6.50;;
3415;SDS011;1721;51.238;9.562;2023-06-10T02:39:43;13.23;;;5.90;;
3415;SDS011;1721;51.238;9.562;2023-06-10T02:42:09;11.10;;;6.00;;
3415;SDS011;1721;51.238;9.562;2023-06-10T02:44:35;12.10;;;5.63;;
3415;SDS011;1721;51.238;9.562;2023-06-10T02:47:01;11.83;;;5.50;;
3415;SDS011;1721;51.238;9.562;2023-06-10T02:49:27;21.10;;;6.70;;
3415;SDS011;1721;51.238;9.562;2023-06-10T02:51:53;12.47;;;5.60;;
3415;SDS011;1721;51.238;9.562;2023-06-10T02:54:22;12.07;;;5.67;;
3415;SDS011;1721;51.238;9.562;2023-06-10T02:56:51;13.48;;;6.13;;
3415;SDS011;1721;51.238;9.562;2023-06-10T02:59:17;14.13;;;6.20;;
3415;SDS011;1721;51.238;9.562;2023-06-10T03:01:42;9.70;;;5.17;;
3415;SDS011;1721;51.238;9.562;2023-06-10T03:04:08;14.60;;;5.83;;
3415;SDS011;1721;51.238;9.562;2023-06-10T03:06:34;15.70;;;6.10;;
3415;SDS011;1721;51.238;9.562;2023-06-10T03:09:01;12.90;;;5.50;;
3415;SDS011;1721;51.238;9.562;2023-06-10T03:11:29;11.23;;;5.32;;
3415;SDS011;1721;51.238;9.562;2023-06-10T03:13:56;9.97;;;5.20;;
3415;SDS011;1721;51.238;9.562;2023-06-10T03:16:22;12.45;;;6.00;;
3415;SDS011;1721;51.238;9.562;2023-06-10T03:18:51;13.90;;;5.60;;
3415;SDS011;1721;51.238;9.562;2023-06-10T03:21:18;10.30;;;5.20;;
3415;SDS011;1721;51.238;9.562;2023-06-10T03:23:43;11.23;;;6.30;;
3415;SDS011;1721;51.238;9.562;2023-06-10T03:26:10;14.32;;;5.00;;
3415;SDS011;1721;51.238;9.562;2023-06-10T03:28:37;10.40;;;5.72;;
3415;SDS011;1721;51.238;9.562;2023-06-10T03:31:03;11.97;;;5.07;;
3415;SDS011;1721;51.238;9.562;2023-06-10T03:33:30;11.53;;;5.83;;
3415;SDS011;1721;51.238;9.562;2023-06-10T03:35:56;13.55;;;6.13;;
3415;SDS011;1721;51.238;9.562;2023-06-10T03:38:21;11.63;;;5.27;;
3415;SDS011;1721;51.238;9.562;2023-06-10T03:40:48;11.25;;;5.68;;
3415;SDS011;1721;51.238;9.562;2023-06-10T03:43:14;10.47;;;4.93;;
3415;SDS011;1721;51.238;9.562;2023-06-10T03:45:41;9.90;;;4.63;;
3415;SDS011;1721;51.238;9.562;2023-06-10T03:48:08;16.83;;;5.90;;
3415;SDS011;1721;51.238;9.562;2023-06-10T03:50:34;10.63;;;5.22;;
3415;SDS011;1721;51.238;9.562;2023-06-10T03:53:01;11.00;;;6.13;;
3415;SDS011;1721;51.238;9.562;2023-06-10T03:55:27;11.70;;;5.73;;
3415;SDS011;1721;51.238;9.562;2023-06-10T03:57:52;15.20;;;6.67;;
3415;SDS011;1721;51.238;9.562;2023-06-10T04:00:18;18.13;;;5.97;;
3415;SDS011;1721;51.238;9.562;2023-06-10T04:02:46;13.63;;;5.80;;
3415;SDS011;1721;51.238;9.562;2023-06-10T04:05:14;14.43;;;6.13;;
3415;SDS011;1721;51.238;9.562;2023-06-10T04:07:41;11.57;;;6.15;;
3415;SDS011;1721;51.238;9.562;2023-06-10T04:10:08;10.35;;;5.20;;
3415;SDS011;1721;51.238;9.562;2023-06-10T04:12:34;13.80;;;6.03;;
3415;SDS011;1721;51.238;9.562;2023-06-10T04:15:00;15.73;;;6.65;;
3415;SDS011;1721;51.238;9.562;2023-06-10T04:17:28;10.85;;;5.15;;
3415;SDS011;1721;51.238;9.562;2023-06-10T04:19:54;10.85;;;6.20;;
3415;SDS011;1721;51.238;9.562;2023-06-10T04:22:20;12.33;;;5.40;;
3415;SDS011;1721;51.238;9.562;2023-06-10T04:24:45;13.10;;;5.90;;
3415;SDS011;1721;51.238;9.562;2023-06-10T04:27:11;11.20;;;5.53;;
3415;SDS011;1721;51.238;9.562;2023-06-10T04:29:38;16.73;;;6.10;;
3415;SDS011;1721;51.238;9.562;2023-06-10T04:32:03;9.27;;;4.63;;
3415;SDS011;1721;51.238;9.562;2023-06-10T04:34:33;10.50;;;4.97;;
3415;SDS011;1721;51.238;9.562;2023-06-10T04:36:58;11.95;;;6.65;;
3415;SDS011;1721;51.238;9.562;2023-06-10T04:39:24;16.30;;;5.33;;
3415;SDS011;1721;51.238;9.562;2023-06-10T04:41:50;14.60;;;5.30;;
3415;SDS011;1721;51.238;9.562;2023-06-10T04:44:15;16.63;;;5.40;;
3415;SDS011;1721;51.238;9.562;2023-06-10T04:46:41;17.13;;;5.57;;
3415;SDS011;1721;51.238;9.562;2023-06-10T04:49:06;10.47;;;5.33;;
3415;SDS011;1721;51.238;9.562;2023-06-10T04:51:32;10.60;;;5.40;;
3415;SDS011;1721;51.238;9.562;2023-06-10T04:53:59;14.27;;;5.93;;
3415;SDS011;1721;51.238;9.562;2023-06-10T04:56:29;11.60;;;6.00;;
3415;SDS011;1721;51.238;9.562;2023-06-10T04:58:58;24.77;;;9.73;;
3415;SDS011;1721;51.238;9.562;2023-06-10T05:01:26;29.77;;;12.90;;
3415;SDS011;1721;51.238;9.562;2023-06-10T05:03:52;49.00;;;24.10;;
3415;SDS011;1721;51.238;9.562;2023-06-10T05:06:18;55.27;;;27.50;;
3415;SDS011;1721;51.238;9.562;2023-06-10T05:08:43;60.10;;;31.03;;
3415;SDS011;1721;51.238;9.562;2023-06-10T05:11:09;53.33;;;27.30;;
3415;SDS011;1721;51.238;9.562;2023-06-10T05:13:35;43.73;;;21.10;;
3415;SDS011;1721;51.238;9.562;2023-06-10T05:16:00;38.83;;;20.90;;
3415;SDS011;1721;51.238;9.562;2023-06-10T05:18:26;26.70;;;13.20;;
3415;SDS011;1721;51.238;9.562;2023-06-10T05:20:51;24.53;;;13.63;;
3415;SDS011;1721;51.238;9.562;2023-06-10T05:23:18;17.27;;;10.00;;
3415;SDS011;1721;51.238;9.562;2023-06-10T05:25:44;20.73;;;10.60;;
3415;SDS011;1721;51.238;9.562;2023-06-10T05:28:11;19.00;;;10.07;;
3415;SDS011;1721;51.238;9.562;2023-06-10T05:30:37;19.33;;;8.03;;
3415;SDS011;1721;51.238;9.562;2023-06-10T05:33:03;13.80;;;5.80;;
3415;SDS011;1721;51.238;9.562;2023-06-10T05:35:29;9.07;;;4.73;;
3415;SDS011;1721;51.238;9.562;2023-06-10T05:37:55;12.90;;;4.40;;
3415;SDS011;1721;51.238;9.562;2023-06-10T05:40:22;14.90;;;5.10;;
3415;SDS011;1721;51.238;9.562;2023-06-10T05:42:48;9.03;;;5.07;;
3415;SDS011;1721;51.238;9.562;2023-06-10T05:45:13;9.60;;;4.50;;
3415;SDS011;1721;51.238;9.562;2023-06-10T05:47:39;11.20;;;4.70;;
3415;SDS011;1721;51.238;9.562;2023-06-10T05:50:05;10.60;;;4.47;;
3415;SDS011;1721;51.238;9.562;2023-06-10T05:52:35;12.23;;;4.70;;
3415;SDS011;1721;51.238;9.562;2023-06-10T05:55:05;11.63;;;5.10;;
3415;SDS011;1721;51.238;9.562;2023-06-10T05:57:34;9.33;;;4.73;;
3415;SDS011;1721;51.238;9.562;2023-06-10T05:59:59;9.30;;;3.57;;
3415;SDS011;1721;51.238;9.562;2023-06-10T06:02:25;9.87;;;4.10;;
3415;SDS011;1721;51.238;9.562;2023-06-10T06:04:51;10.03;;;3.70;;
3415;SDS011;1721;51.238;9.562;2023-06-10T06:07:17;11.90;;;3.67;;
3415;SDS011;1721;51.238;9.562;2023-06-10T06:09:45;6.87;;;3.40;;
3415;SDS011;1721;51.238;9.562;2023-06-10T06:12:12;11.83;;;4.30;;
3415;SDS011;1721;51.238;9.562;2023-06-10T06:14:38;9.60;;;3.63;;
3415;SDS011;1721;51.238;9.562;2023-06-10T06:17:06;7.10;;;3.30;;
3415;SDS011;1721;51.238;9.562;2023-06-10T06:19:32;13.00;;;4.30;;
3415;SDS011;1721;51.238;9.562;2023-06-10T06:21:58;7.60;;;3.57;;
3415;SDS011;1721;51.238;9.562;2023-06-10T06:24:24;9.00;;;4.03;;
3415;SDS011;1721;51.238;9.562;2023-06-10T06:26:49;9.83;;;3.80;;
3415;SDS011;1721;51.238;9.562;2023-06-10T06:29:15;8.23;;;3.53;;
3415;SDS011;1721;51.238;9.562;2023-06-10T06:31:40;13.07;;;3.77;;
3415;SDS011;1721;51.238;9.562;2023-06-10T06:34:06;8.93;;;3.77;;
3415;SDS011;1721;51.238;9.562;2023-06-10T06:36:31;9.33;;;4.00;;
3415;SDS011;1721;51.238;9.562;2023-06-10T06:38:57;7.60;;;3.53;;
3415;SDS011;1721;51.238;9.562;2023-06-10T06:41:23;9.70;;;3.40;;
3415;SDS011;1721;51.238;9.562;2023-06-10T06:43:51;10.00;;;3.60;;
3415;SDS011;1721;51.238;9.562;2023-06-10T06:46:16;11.27;;;3.87;;
3415;SDS011;1721;51.238;9.562;2023-06-10T06:48:42;10.87;;;4.67;;
3415;SDS011;1721;51.238;9.562;2023-06-10T06:51:07;10.03;;;4.17;;
3415;SDS011;1721;51.238;9.562;2023-06-10T06:53:33;9.00;;;3.60;;
3415;SDS011;1721;51.238;9.562;2023-06-10T06:55:59;8.80;;;3.57;;
3415;SDS011;1721;51.238;9.562;2023-06-10T06:58:25;8.20;;;3.50;;
3415;SDS011;1721;51.238;9.562;2023-06-10T07:00:50;8.00;;;3.33;;
3415;SDS011;1721;51.238;9.562;2023-06-10T07:03:16;7.67;;;3.70;;
3415;SDS011;1721;51.238;9.562;2023-06-10T07:05:41;8.60;;;2.93;;
3415;SDS011;1721;51.238;9.562;2023-06-10T07:08:08;7.00;;;3.17;;
3415;SDS011;1721;51.238;9.562;2023-06-10T07:10:33;13.13;;;3.63;;
3415;SDS011;1721;51.238;9.562;2023-06-10T07:12:59;10.40;;;3.47;;
3415;SDS011;1721;51.238;9.562;2023-06-10T07:15:24;9.33;;;4.20;;
3415;SDS011;1721;51.238;9.562;2023-06-10T07:17:50;13.73;;;3.60;;
3415;SDS011;1721;51.238;9.562;2023-06-10T07:20:16;9.57;;;3.80;;
3415;SDS011;1721;51.238;9.562;2023-06-10T07:22:42;7.47;;;2.90;;
3415;SDS011;1721;51.238;9.562;2023-06-10T07:25:08;8.73;;;3.50;;
3415;SDS011;1721;51.238;9.562;2023-06-10T07:27:34;13.23;;;3.60;;
3415;SDS011;1721;51.238;9.562;2023-06-10T07:30:03;10.70;;;4.90;;
3415;SDS011;1721;51.238;9.562;2023-06-10T07:32:32;9.33;;;3.47;;
3415;SDS011;1721;51.238;9.562;2023-06-10T07:34:58;8.73;;;3.83;;
3415;SDS011;1721;51.238;9.562;2023-06-10T07:37:23;9.60;;;4.10;;
3415;SDS011;1721;51.238;9.562;2023-06-10T07:39:49;12.30;;;4.57;;
3415;SDS011;1721;51.238;9.562;2023-06-10T07:42:14;8.43;;;3.70;;
3415;SDS011;1721;51.238;9.562;2023-06-10T07:44:40;11.80;;;3.70;;
3415;SDS011;1721;51.238;9.562;2023-06-10T07:47:06;10.43;;;3.70;;
3415;SDS011;1721;51.238;9.562;2023-06-10T07:49:31;9.77;;;3.77;;
3415;SDS011;1721;51.238;9.562;2023-06-10T07:51:57;8.97;;;3.67;;
3415;SDS011;1721;51.238;9.562;2023-06-10T07:54:22;12.33;;;4.40;;
3415;SDS011;1721;51.238;9.562;2023-06-10T07:56:48;9.40;;;4.00;;
3415;SDS011;1721;51.238;9.562;2023-06-10T07:59:14;10.33;;;4.27;;
3415;SDS011;1721;51.238;9.562;2023-06-10T08:01:39;8.20;;;3.77;;
3415;SDS011;1721;51.238;9.562;2023-06-10T08:04:05;13.00;;;3.90;;
3415;SDS011;1721;51.238;9.562;2023-06-10T08:06:31;10.33;;;4.27;;
3415;SDS011;1721;51.238;9.562;2023-06-10T08:08:57;10.83;;;3.63;;
3415;SDS011;1721;51.238;9.562;2023-06-10T08:11:22;9.77;;;4.33;;
3415;SDS011;1721;51.238;9.562;2023-06-10T08:13:48;9.80;;;4.07;;
3415;SDS011;1721;51.238;9.562;2023-06-10T08:16:13;9.47;;;3.60;;
3415;SDS011;1721;51.238;9.562;2023-06-10T08:18:39;10.57;;;4.87;;
3415;SDS011;1721;51.238;9.562;2023-06-10T08:21:05;13.47;;;4.23;;
3415;SDS011;1721;51.238;9.562;2023-06-10T08:23:31;8.53;;;4.07;;
3415;SDS011;1721;51.238;9.562;2023-06-10T08:25:56;11.57;;;4.60;;
3415;SDS011;1721;51.238;9.562;2023-06-10T08:28:23;7.50;;;3.80;;
3415;SDS011;1721;51.238;9.562;2023-06-10T08:30:48;9.00;;;4.50;;
3415;SDS011;1721;51.238;9.562;2023-06-10T08:33:14;11.33;;;4.43;;
3415;SDS011;1721;51.238;9.562;2023-06-10T08:35:40;11.30;;;5.03;;
3415;SDS011;1721;51.238;9.562;2023-06-10T08:38:05;15.10;;;5.07;;
3415;SDS011;1721;51.238;9.562;2023-06-10T08:40:32;14.07;;;5.10;;
3415;SDS011;1721;51.238;9.562;2023-06-10T08:43:05;11.53;;;4.80;;
3415;SDS011;1721;51.238;9.562;2023-06-10T08:45:32;12.03;;;4.47;;
3415;SDS011;1721;51.238;9.562;2023-06-10T08:48:00;11.93;;;4.60;;
3415;SDS011;1721;51.238;9.562;2023-06-10T08:50:31;11.40;;;5.00;;
3415;SDS011;1721;51.238;9.562;2023-06-10T08:52:59;11.27;;;4.50;;
3415;SDS011;1721;51.238;9.562;2023-06-10T08:55:27;11.77;;;4.70;;
3415;SDS011;1721;51.238;9.562;2023-06-10T08:57:57;15.33;;;4.67;;
3415;SDS011;1721;51.238;9.562;2023-06-10T09:00:26;15.63;;;4.53;;
3415;SDS011;1721;51.238;9.562;2023-06-10T09:02:57;13.20;;;5.00;;
3415;SDS011;1721;51.238;9.562;2023-06-10T09:05:24;13.20;;;5.00;;
3415;SDS011;1721;51.238;9.562;2023-06-10T09:07:51;12.53;;;5.70;;
3415;SDS011;1721;51.238;9.562;2023-06-10T09:10:19;10.07;;;4.70;;
3415;SDS011;1721;51.238;9.562;2023-06-10T09:12:44;17.97;;;5.37;;
3415;SDS011;1721;51.238;9.562;2023-06-10T09:15:11;12.43;;;5.50;;
3415;SDS011;1721;51.238;9.562;2023-06-10T09:17:37;9.77;;;5.10;;
3415;SDS011;1721;51.238;9.562;2023-06-10T09:20:05;10.93;;;5.37;;
3415;SDS011;1721;51.238;9.562;2023-06-10T09:22:32;11.23;;;5.37;;
3415;SDS011;1721;51.238;9.562;2023-06-10T09:25:08;11.73;;;5.50;;
3415;SDS011;1721;51.238;9.562;2023-06-10T09:27:51;12.23;;;6.17;;
3415;SDS011;1721;51.238;9.562;2023-06-10T09:30:34;13.37;;;5.20;;
3415;SDS011;1721;51.238;9.562;2023-06-10T09:33:02;10.23;;;5.53;;
3415;SDS011;1721;51.238;9.562;2023-06-10T09:35:34;11.97;;;5.70;;
3415;SDS011;1721;51.238;9.562;2023-06-10T09:38:00;10.40;;;5.73;;
3415;SDS011;1721;51.238;9.562;2023-06-10T09:40:27;13.83;;;5.67;;
3415;SDS011;1721;51.238;9.562;2023-06-10T09:42:53;10.43;;;5.67;;
3415;SDS011;1721;51.238;9.562;2023-06-10T09:45:20;11.50;;;6.23;;
3415;SDS011;1721;51.238;9.562;2023-06-10T09:47:47;17.67;;;6.43;;
3415;SDS011;1721;51.238;9.562;2023-06-10T09:50:17;10.10;;;5.80;;
3415;SDS011;1721;51.238;9.562;2023-06-10T09:52:43;9.90;;;4.90;;
3415;SDS011;1721;51.238;9.562;2023-06-10T09:55:15;12.03;;;5.80;;
3415;SDS011;1721;51.238;9.562;2023-06-10T09:57:41;11.63;;;5.30;;
3415;SDS011;1721;51.238;9.562;2023-06-10T10:00:09;12.63;;;5.93;;
3415;SDS011;1721;51.238;9.562;2023-06-10T10:02:48;14.53;;;5.30;;
3415;SDS011;1721;51.238;9.562;2023-06-10T10:05:16;9.63;;;4.90;;
3415;SDS011;1721;51.238;9.562;2023-06-10T10:07:45;8.57;;;4.00;;
3415;SDS011;1721;51.238;9.562;2023-06-10T10:10:12;10.90;;;4.60;;
3415;SDS011;1721;51.238;9.562;2023-06-10T10:12:40;13.93;;;5.20;;
3415;SDS011;1721;51.238;9.562;2023-06-10T10:15:10;12.87;;;5.20;;
3415;SDS011;1721;51.238;9.562;2023-06-10T10:17:40;16.90;;;4.77;;
3415;SDS011;1721;51.238;9.562;2023-06-10T10:20:26;13.27;;;5.40;;
3415;SDS011;1721;51.238;9.562;2023-06-10T10:22:56;10.50;;;5.10;;
3415;SDS011;1721;51.238;9.562;2023-06-10T10:25:29;8.10;;;4.50;;
3415;SDS011;1721;51.238;9.562;2023-06-10T10:28:06;8.07;;;4.30;;
3415;SDS011;1721;51.238;9.562;2023-06-10T10:30:40;8.97;;;4.33;;
3415;SDS011;1721;51.238;9.562;2023-06-10T10:33:18;9.23;;;4.40;;
3415;SDS011;1721;51.238;9.562;2023-06-10T10:35:48;10.83;;;4.80;;
3415;SDS011;1721;51.238;9.562;2023-06-10T10:38:15;12.73;;;4.43;;
3415;SDS011;1721;51.238;9.562;2023-06-10T10:40:41;8.40;;;4.63;;
3415;SDS011;1721;51.238;9.562;2023-06-10T10:43:08;13.93;;;4.37;;
3415;SDS011;1721;51.238;9.562;2023-06-10T10:45:35;7.87;;;4.47;;
3415;SDS011;1721;51.238;9.562;2023-06-10T10:48:04;9.30;;;4.40;;
3415;SDS011;1721;51.238;9.562;2023-06-10T10:50:33;10.10;;;5.10;;
3415;SDS011;1721;51.238;9.562;2023-06-10T10:53:00;8.63;;;4.13;;
3415;SDS011;1721;51.238;9.562;2023-06-10T10:55:27;7.83;;;4.30;;
3415;SDS011;1721;51.238;9.562;2023-06-10T11:00:24;11.60;;;4.93;;
3415;SDS011;1721;51.238;9.562;2023-06-10T11:03:08;7.90;;;4.07;;
3415;SDS011;1721;51.238;9.562;2023-06-10T11:05:39;10.60;;;4.10;;
3415;SDS011;1721;51.238;9.562;2023-06-10T11:08:12;11.03;;;4.83;;
3415;SDS011;1721;51.238;9.562;2023-06-10T11:10:39;11.73;;;4.93;;
3415;SDS011;1721;51.238;9.562;2023-06-10T11:13:09;8.93;;;4.83;;
3415;SDS011;1721;51.238;9.562;2023-06-10T11:15:47;9.43;;;4.77;;
3415;SDS011;1721;51.238;9.562;2023-06-10T11:20:58;13.60;;;5.87;;
3415;SDS011;1721;51.238;9.562;2023-06-10T11:28:36;13.83;;;5.30;;
3415;SDS011;1721;51.238;9.562;2023-06-10T11:31:01;9.53;;;5.10;;
3415;SDS011;1721;51.238;9.562;2023-06-10T11:33:27;8.63;;;5.30;;
3415;SDS011;1721;51.238;9.562;2023-06-10T11:35:53;15.40;;;5.77;;
3415;SDS011;1721;51.238;9.562;2023-06-10T11:38:20;14.43;;;6.67;;
3415;SDS011;1721;51.238;9.562;2023-06-10T11:40:48;10.57;;;5.23;;
3415;SDS011;1721;51.238;9.562;2023-06-10T11:43:15;15.10;;;5.63;;
3415;SDS011;1721;51.238;9.562;2023-06-10T11:45:42;12.73;;;5.83;;
3415;SDS011;1721;51.238;9.562;2023-06-10T11:48:08;10.33;;;5.67;;
3415;SDS011;1721;51.238;9.562;2023-06-10T11:50:35;10.30;;;5.37;;
3415;SDS011;1721;51.238;9.562;2023-06-10T11:53:02;9.33;;;4.90;;
3415;SDS011;1721;51.238;9.562;2023-06-10T11:55:44;8.70;;;5.37;;
3415;SDS011;1721;51.238;9.562;2023-06-10T11:58:21;10.97;;;5.53;;
3415;SDS011;1721;51.238;9.562;2023-06-10T12:00:47;12.30;;;5.30;;
3415;SDS011;1721;51.238;9.562;2023-06-10T12:03:18;8.17;;;4.80;;
3415;SDS011;1721;51.238;9.562;2023-06-10T12:05:58;13.60;;;6.13;;
3415;SDS011;1721;51.238;9.562;2023-06-10T12:08:25;15.10;;;5.10;;
3415;SDS011;1721;51.238;9.562;2023-06-10T12:10:52;11.23;;;5.17;;
3415;SDS011;1721;51.238;9.562;2023-06-10T12:13:18;11.37;;;5.20;;
3415;SDS011;1721;51.238;9.562;2023-06-10T12:15:45;11.87;;;5.23;;
3415;SDS011;1721;51.238;9.562;2023-06-10T12:18:20;12.20;;;5.43;;
3415;SDS011;1721;51.238;9.562;2023-06-10T12:20:47;11.40;;;5.13;;
3415;SDS011;1721;51.238;9.562;2023-06-10T12:23:13;9.47;;;4.70;;
3415;SDS011;1721;51.238;9.562;2023-06-10T12:25:48;10.50;;;4.50;;
3415;SDS011;1721;51.238;9.562;2023-06-10T12:28:22;9.17;;;4.93;;
3415;SDS011;1721;51.238;9.562;2023-06-10T12:30:48;7.27;;;4.10;;
3415;SDS011;1721;51.238;9.562;2023-06-10T12:33:17;8.80;;;4.80;;
3415;SDS011;1721;51.238;9.562;2023-06-10T12:35:52;22.13;;;5.50;;
3415;SDS011;1721;51.238;9.562;2023-06-10T12:38:24;10.63;;;5.23;;
3415;SDS011;1721;51.238;9.562;2023-06-10T12:40:54;10.50;;;4.97;;
3415;SDS011;1721;51.238;9.562;2023-06-10T12:43:26;8.60;;;4.50;;
3415;SDS011;1721;51.238;9.562;2023-06-10T12:45:51;9.33;;;4.93;;
3415;SDS011;1721;51.238;9.562;2023-06-10T12:48:20;9.20;;;4.80;;
3415;SDS011;1721;51.238;9.562;2023-06-10T12:50:53;7.83;;;4.43;;
3415;SDS011;1721;51.238;9.562;2023-06-10T12:53:20;8.30;;;4.87;;
3415;SDS011;1721;51.238;9.562;2023-06-10T12:55:48;11.77;;;5.73;;
3415;SDS011;1721;51.238;9.562;2023-06-10T12:58:14;8.03;;;4.43;;
3415;SDS011;1721;51.238;9.562;2023-06-10T13:00:40;9.27;;;4.10;;
3415;SDS011;1721;51.238;9.562;2023-06-10T13:03:07;7.77;;;4.33;;
3415;SDS011;1721;51.238;9.562;2023-06-10T13:05:35;10.07;;;3.90;;
3415;SDS011;1721;51.238;9.562;2023-06-10T13:08:03;14.93;;;4.37;;
3415;SDS011;1721;51.238;9.562;2023-06-10T13:10:35;8.67;;;4.50;;
3415;SDS011;1721;51.238;9.562;2023-06-10T13:13:01;9.80;;;3.67;;
3415;SDS011;1721;51.238;9.562;2023-06-10T13:15:30;6.90;;;3.70;;
3415;SDS011;1721;51.238;9.562;2023-06-10T13:17:57;7.83;;;3.90;;
3415;SDS011;1721;51.238;9.562;2023-06-10T13:20:23;10.33;;;3.60;;
3415;SDS011;1721;51.238;9.562;2023-06-10T13:22:49;7.03;;;3.73;;
3415;SDS011;1721;51.238;9.562;2023-06-10T13:25:16;7.50;;;3.73;;
3415;SDS011;1721;51.238;9.562;2023-06-10T13:27:41;8.63;;;3.93;;
3415;SDS011;1721;51.238;9.562;2023-06-10T13:30:08;8.67;;;4.70;;
3415;SDS011;1721;51.238;9.562;2023-06-10T13:32:35;8.60;;;3.47;;
3415;SDS011;1721;51.238;9.562;2023-06-10T13:35:01;8.00;;;3.80;;
3415;SDS011;1721;51.238;9.562;2023-06-10T13:37:28;5.20;;;2.87;;
3415;SDS011;1721;51.238;9.562;2023-06-10T13:39:53;10.90;;;3.63;;
3415;SDS011;1721;51.238;9.562;2023-06-10T13:42:19;7.37;;;3.20;;
3415;SDS011;1721;51.238;9.562;2023-06-10T13:44:45;12.10;;;4.00;;
3415;SDS011;1721;51.238;9.562;2023-06-10T13:47:16;8.20;;;3.57;;
3415;SDS011;1721;51.238;9.562;2023-06-10T13:49:42;8.70;;;3.63;;
3415;SDS011;1721;51.238;9.562;2023-06-10T13:52:08;7.60;;;3.53;;
3415;SDS011;1721;51.238;9.562;2023-06-10T13:54:33;10.80;;;4.33;;
3415;SDS011;1721;51.238;9.562;2023-06-10T13:57:02;7.33;;;3.37;;
3415;SDS011;1721;51.238;9.562;2023-06-10T13:59:28;10.23;;;4.47;;
3415;SDS011;1721;51.238;9.562;2023-06-10T14:01:54;8.47;;;3.97;;
3415;SDS011;1721;51.238;9.562;2023-06-10T14:04:20;7.67;;;4.00;;
3415;SDS011;1721;51.238;9.562;2023-06-10T14:06:46;10.07;;;3.40;;
3415;SDS011;1721;51.238;9.562;2023-06-10T14:09:14;10.87;;;4.50;;
3415;SDS011;1721;51.238;9.562;2023-06-10T14:11:41;9.30;;;4.97;;
3415;SDS011;1721;51.238;9.562;2023-06-10T14:14:07;9.30;;;4.47;;
3415;SDS011;1721;51.238;9.562;2023-06-10T14:16:32;10.30;;;4.27;;
3415;SDS011;1721;51.238;9.562;2023-06-10T14:18:58;13.10;;;4.07;;
3415;SDS011;1721;51.238;9.562;2023-06-10T14:21:23;10.70;;;4.60;;
3415;SDS011;1721;51.238;9.562;2023-06-10T14:23:49;7.30;;;4.20;;
3415;SDS011;1721;51.238;9.562;2023-06-10T14:26:16;8.70;;;4.30;;
3415;SDS011;1721;51.238;9.562;2023-06-10T14:28:42;8.37;;;4.33;;
3415;SDS011;1721;51.238;9.562;2023-06-10T14:31:07;9.63;;;4.70;;
3415;SDS011;1721;51.238;9.562;2023-06-10T14:33:33;8.60;;;4.57;;
3415;SDS011;1721;51.238;9.562;2023-06-10T14:35:59;12.13;;;4.83;;
3415;SDS011;1721;51.238;9.562;2023-06-10T14:38:24;9.37;;;5.00;;
3415;SDS011;1721;51.238;9.562;2023-06-10T14:40:50;10.90;;;5.30;;
3415;SDS011;1721;51.238;9.562;2023-06-10T14:43:17;7.93;;;4.80;;
3415;SDS011;1721;51.238;9.562;2023-06-10T14:45:42;11.80;;;4.20;;
3415;SDS011;1721;51.238;9.562;2023-06-10T14:48:08;12.67;;;4.93;;
3415;SDS011;1721;51.238;9.562;2023-06-10T14:50:34;10.30;;;4.70;;
3415;SDS011;1721;51.238;9.562;2023-06-10T14:53:00;10.27;;;5.00;;
3415;SDS011;1721;51.238;9.562;2023-06-10T14:55:27;10.40;;;4.90;;
3415;SDS011;1721;51.238;9.562;2023-06-10T14:57:53;15.37;;;5.83;;
3415;SDS011;1721;51.238;9.562;2023-06-10T15:00:19;11.90;;;5.23;;
3415;SDS011;1721;51.238;9.562;2023-06-10T15:02:48;11.73;;;5.10;;
3415;SDS011;1721;51.238;9.562;2023-06-10T15:05:17;8.47;;;4.43;;
3415;SDS011;1721;51.238;9.562;2023-06-10T15:07:46;9.30;;;4.83;;
3415;SDS011;1721;51.238;9.562;2023-06-10T15:10:12;11.10;;;4.73;;
3415;SDS011;1721;51.238;9.562;2023-06-10T15:12:38;10.07;;;4.30;;
3415;SDS011;1721;51.238;9.562;2023-06-10T15:15:04;17.10;;;5.83;;
3415;SDS011;1721;51.238;9.562;2023-06-10T15:17:29;14.33;;;5.10;;
3415;SDS011;1721;51.238;9.562;2023-06-10T15:19:55;11.93;;;4.60;;
3415;SDS011;1721;51.238;9.562;2023-06-10T15:22:21;10.57;;;4.83;;
3415;SDS011;1721;51.238;9.562;2023-06-10T15:24:47;10.27;;;4.27;;